createdAt,value
2023-03-26T00:21:31.412Z,7.20
2023-03-26T01:19:30.401Z,7.40
2023-03-26T01:34:53.846Z,7.30
2023-03-26T01:42:35.502Z,7.30
2023-03-26T02:03:04.940Z,7.40
2023-03-26T02:10:44.275Z,7.50
2023-03-26T04:59:18.726Z,7.80
2023-03-26T05:33:37.552Z,8.70
2023-03-26T07:31:04.196Z,10.80
2023-03-26T07:33:46.909Z,10.80
2023-03-26T07:42:58.349Z,11.80
2023-03-26T07:48:33.952Z,11.60
2023-03-26T07:56:47.884Z,11.50
2023-03-26T07:59:41.533Z,11.90
2023-03-26T08:02:54.917Z,11.30
2023-03-26T08:11:40.550Z,11.50
2023-03-26T08:29:45.504Z,12.10
2023-03-26T08:32:18.305Z,11.90
2023-03-26T08:45:36.089Z,12.50
2023-03-26T08:51:33.593Z,12.50
2023-03-26T08:56:56.212Z,12.60
2023-03-26T09:00:01.413Z,13.30
2023-03-26T09:05:55.888Z,13.50
2023-03-26T09:09:18.817Z,12.40
2023-03-26T09:12:30.091Z,12.70
2023-03-26T09:15:43.169Z,12.10
2023-03-26T09:18:50.124Z,11.70
2023-03-26T09:21:46.092Z,10.60
2023-03-26T09:27:34.818Z,10.60
2023-03-26T09:30:38.436Z,11.10
2023-03-26T09:33:32.605Z,11.70
2023-03-26T09:36:21.962Z,11.70
2023-03-26T09:41:36.837Z,12.90
2023-03-26T09:49:50.570Z,12.80
2023-03-26T09:52:46.017Z,12.40
2023-03-26T09:55:40.886Z,12.60
2023-03-26T10:06:26.305Z,12.70
2023-03-26T10:11:38.652Z,13.90
2023-03-26T10:14:17.995Z,13.30
2023-03-26T10:19:42.876Z,13.40
2023-03-26T10:25:03.472Z,11.60
2023-03-26T10:27:44.804Z,11.00
2023-03-26T10:33:10.486Z,11.60
2023-03-26T10:38:19.945Z,11.40
2023-03-26T10:49:10.581Z,11.60
2023-03-26T10:51:50.496Z,11.80
2023-03-26T11:12:26.124Z,9.80
2023-03-26T11:15:11.818Z,10.00
2023-03-26T11:17:49.046Z,10.70
2023-03-26T11:20:21.589Z,11.20
2023-03-26T11:23:00.429Z,11.40
2023-03-26T11:28:27.777Z,11.90
2023-03-26T11:31:03.109Z,12.40
2023-03-26T11:33:37.648Z,12.30
2023-03-26T11:38:47.596Z,12.20
2023-03-26T11:41:23.494Z,12.50
2023-03-26T11:44:27.801Z,12.60
2023-03-26T11:47:01.556Z,11.90
2023-03-26T11:49:30.596Z,11.60
2023-03-26T11:59:53.328Z,13.40
2023-03-26T12:02:29.913Z,13.00
2023-03-26T12:05:13.714Z,13.30
2023-03-26T12:07:47.946Z,13.20
2023-03-26T12:10:26.207Z,12.50
2023-03-26T12:12:59.826Z,12.70
2023-03-26T12:15:30.867Z,12.00
2023-03-26T12:18:00.522Z,12.20
2023-03-26T12:23:08.245Z,11.60
2023-03-26T12:25:38.860Z,11.60
2023-03-26T12:33:27.047Z,11.80
2023-03-26T12:35:57.926Z,11.80
2023-03-26T12:38:33.418Z,11.50
2023-03-26T12:44:46.260Z,11.50
2023-03-26T12:47:56.968Z,11.00
2023-03-26T12:51:52.962Z,10.70
2023-03-26T12:54:44.809Z,10.60
2023-03-26T12:57:23.981Z,11.50
2023-03-26T13:00:14.314Z,11.40
2023-03-26T13:03:21.135Z,11.30
2023-03-26T13:16:26.229Z,9.80
2023-03-26T13:18:57.915Z,10.30
2023-03-26T13:21:37.525Z,10.40
2023-03-26T13:24:16.505Z,10.40
2023-03-26T13:29:35.366Z,10.50
2023-03-26T13:32:13.932Z,10.50
2023-03-26T13:37:31.172Z,10.50
2023-03-26T13:40:13.635Z,13.80
2023-03-26T13:42:50.622Z,10.70
2023-03-26T13:47:58.372Z,11.40
2023-03-26T13:53:03.274Z,11.90
2023-03-26T14:03:35.740Z,9.90
2023-03-26T14:06:09.677Z,10.00
2023-03-26T14:13:44.758Z,11.40
2023-03-26T14:16:18.680Z,11.50
2023-03-26T14:18:56.254Z,11.50
2023-03-26T14:21:36.644Z,11.50
2023-03-26T14:24:35.856Z,10.80
2023-03-26T14:29:57.191Z,11.20
2023-03-26T14:32:38.341Z,11.40
2023-03-26T14:35:26.151Z,11.40
2023-03-26T14:38:24.639Z,11.80
2023-03-26T14:40:58.847Z,11.80
2023-03-26T14:44:04.819Z,11.70
2023-03-26T14:46:42.111Z,11.20
2023-03-26T14:49:36.950Z,10.80
2023-03-26T14:52:14.700Z,11.10
2023-03-26T14:54:45.758Z,11.00
2023-03-26T14:57:49.561Z,11.20
2023-03-26T15:00:56.656Z,11.60
2023-03-26T15:04:20.364Z,11.30
2023-03-26T15:10:13.135Z,11.20
2023-03-26T15:13:11.186Z,11.00
2023-03-26T15:16:09.326Z,11.10
2023-03-26T15:22:07.999Z,10.90
2023-03-26T15:25:14.863Z,10.70
2023-03-26T15:28:27.511Z,10.80
2023-03-26T15:31:26.348Z,11.00
2023-03-26T15:34:23.373Z,10.80
2023-03-26T15:37:37.897Z,10.70
2023-03-26T15:40:41.819Z,10.70
2023-03-26T15:43:13.992Z,10.90
2023-03-26T15:45:46.078Z,9.50
2023-03-26T15:51:08.892Z,10.70
2023-03-26T15:53:44.810Z,10.70
2023-03-26T15:56:23.867Z,10.70
2023-03-26T15:59:01.929Z,10.60
2023-03-26T16:04:24.957Z,11.60
2023-03-26T16:07:02.975Z,11.60
2023-03-26T16:09:52.122Z,11.40
2023-03-26T16:12:35.865Z,11.40
2023-03-26T16:15:33.373Z,11.20
2023-03-26T16:18:34.025Z,11.20
2023-03-26T16:21:40.380Z,11.20
2023-03-26T16:24:27.852Z,11.20
2023-03-26T16:27:32.534Z,11.10
2023-03-26T16:30:23.252Z,11.20
2023-03-26T16:32:58.714Z,10.50
2023-03-26T16:35:44.836Z,10.50
2023-03-26T16:38:16.148Z,9.20
2023-03-26T16:41:04.695Z,10.30
2023-03-26T16:43:51.433Z,10.00
2023-03-26T16:46:34.460Z,10.00
2023-03-26T16:49:13.883Z,9.70
2023-03-26T16:52:00.239Z,9.80
2023-03-26T16:54:40.054Z,9.50
2023-03-26T16:57:21.227Z,9.50
2023-03-26T17:00:24.552Z,9.50
2023-03-26T17:03:01.464Z,9.20
2023-03-26T17:05:37.321Z,9.30
2023-03-26T17:08:36.839Z,9.30
2023-03-26T17:11:10.344Z,9.30
2023-03-26T17:13:47.500Z,9.10
2023-03-26T17:16:24.457Z,9.10
2023-03-26T17:19:04.317Z,9.10
2023-03-26T17:21:45.842Z,8.90
2023-03-26T17:24:24.530Z,8.90
2023-03-26T17:27:20.063Z,8.80
2023-03-26T17:32:58.852Z,8.80
2023-03-26T17:35:42.179Z,8.60
2023-03-26T17:38:46.753Z,8.70
2023-03-26T17:41:49.022Z,8.60
2023-03-26T17:44:39.227Z,8.50
2023-03-26T17:54:46.451Z,8.20
2023-03-26T17:57:21.294Z,8.00
2023-03-26T17:59:51.674Z,8.10
2023-03-26T18:02:24.044Z,8.10
2023-03-26T18:04:54.928Z,8.20
2023-03-26T18:07:53.035Z,7.90
2023-03-26T18:13:16.424Z,7.50
2023-03-26T18:15:53.343Z,7.60
2023-03-26T18:18:27.475Z,7.70
2023-03-26T18:20:56.172Z,7.70
2023-03-26T18:23:29.944Z,7.80
2023-03-26T18:26:00.517Z,7.50
2023-03-26T18:28:41.626Z,7.40
2023-03-26T18:31:16.786Z,7.50
2023-03-26T18:33:46.980Z,7.50
2023-03-26T18:36:18.581Z,7.80
2023-03-26T18:41:27.543Z,7.60
2023-03-26T18:44:02.193Z,7.60
2023-03-26T18:49:02.847Z,7.60
2023-03-26T19:01:50.936Z,7.60
2023-03-26T19:06:48.077Z,7.30
2023-03-26T19:09:30.876Z,7.60
2023-03-26T19:12:07.499Z,7.30
2023-03-26T19:14:52.846Z,7.20
2023-03-26T19:19:50.810Z,7.30
2023-03-26T19:22:21.119Z,6.20
2023-03-26T19:24:52.436Z,7.20
2023-03-26T19:29:50.929Z,6.80
2023-03-26T19:32:21.525Z,7.10
2023-03-26T19:34:50.848Z,6.80
2023-03-26T19:37:22.777Z,7.20
2023-03-26T19:39:52.852Z,6.80
2023-03-26T19:42:26.527Z,6.60
2023-03-26T19:47:38.970Z,6.90
2023-03-26T19:55:53.857Z,6.80
2023-03-26T20:03:27.561Z,7.00
2023-03-26T20:16:05.924Z,6.80
2023-03-26T20:35:58.914Z,6.30
2023-03-26T21:08:35.464Z,6.10
2023-03-26T21:16:08.173Z,6.50
2023-03-26T21:26:31.791Z,6.90
2023-03-26T21:41:43.695Z,6.30
2023-03-26T21:59:28.458Z,5.90
2023-03-26T22:02:03.740Z,5.80
2023-03-26T22:04:40.380Z,5.70
2023-03-26T22:37:05.804Z,5.40
2023-03-26T22:39:33.971Z,5.40
2023-03-26T22:42:03.828Z,5.30
2023-03-26T22:44:32.100Z,5.30
2023-03-26T22:47:01.379Z,5.40
2023-03-26T22:49:31.365Z,5.50
2023-03-26T22:51:59.972Z,5.50
2023-03-26T22:54:29.611Z,5.40
2023-03-26T22:56:57.849Z,5.70
2023-03-26T22:59:26.441Z,5.60
2023-03-26T23:01:54.718Z,5.60
2023-03-26T23:04:30.587Z,5.70
2023-03-26T23:06:59.346Z,5.60
2023-03-26T23:09:29.550Z,5.70
2023-03-26T23:11:58.456Z,5.80
2023-03-26T23:14:26.715Z,6.40
2023-03-26T23:16:55.102Z,5.70
2023-03-26T23:19:23.410Z,5.70
2023-03-26T23:21:51.738Z,5.80
2023-03-26T23:24:19.868Z,5.80
2023-03-26T23:26:51.001Z,5.90
2023-03-26T23:29:19.682Z,5.90
2023-03-26T23:31:48.140Z,5.80
2023-03-26T23:34:17.200Z,5.80
2023-03-26T23:36:45.845Z,5.90
2023-03-26T23:39:14.175Z,5.90
2023-03-26T23:41:42.599Z,5.90
2023-03-26T23:44:16.096Z,5.90
2023-03-26T23:46:44.683Z,6.00
2023-03-26T23:49:13.072Z,6.00
2023-03-26T23:51:42.211Z,6.00
2023-03-26T23:54:12.720Z,5.90
2023-03-26T23:56:41.002Z,5.90
2023-03-26T23:59:09.679Z,5.90
